createdAt,value
2023-02-27T00:00:29.664Z,59.67
2023-02-27T00:01:29.860Z,59.46
2023-02-27T00:02:30.057Z,59.88
2023-02-27T00:03:30.215Z,59.88
2023-02-27T00:04:30.365Z,59.88
2023-02-27T00:05:30.563Z,59.88
2023-02-27T00:06:30.703Z,59.56
2023-02-27T00:07:30.874Z,59.88
2023-02-27T00:08:31.082Z,60.19
2023-02-27T00:09:31.213Z,59.99
2023-02-27T00:10:31.414Z,59.88
2023-02-27T00:11:31.545Z,60.82
2023-02-27T00:12:31.711Z,60.30
2023-02-27T00:13:31.912Z,60.19
2023-02-27T00:14:32.050Z,60.61
2023-02-27T00:15:32.235Z,60.50
2023-02-27T00:16:32.391Z,59.99
2023-02-27T00:17:32.586Z,60.82
2023-02-27T00:18:32.753Z,59.88
2023-02-27T00:19:32.922Z,61.02
2023-02-27T00:20:33.110Z,60.71
2023-02-27T00:21:34.763Z,60.40
2023-02-27T00:22:33.423Z,60.50
2023-02-27T00:23:33.602Z,60.82
2023-02-27T00:24:33.761Z,61.02
2023-02-27T00:25:33.976Z,61.02
2023-02-27T00:26:34.102Z,60.61
2023-02-27T00:27:34.278Z,60.09
2023-02-27T00:28:34.440Z,60.40
2023-02-27T00:29:34.612Z,59.88
2023-02-27T00:30:34.918Z,60.40
2023-02-27T00:31:34.990Z,61.65
2023-02-27T00:32:35.177Z,61.57
2023-02-27T00:33:35.297Z,61.16
2023-02-27T00:34:35.468Z,60.95
2023-02-27T00:35:35.664Z,60.63
2023-02-27T00:36:35.816Z,60.42
2023-02-27T00:37:35.998Z,60.95
2023-02-27T00:38:36.174Z,60.63
2023-02-27T00:39:36.348Z,60.74
2023-02-27T00:40:36.525Z,60.11
2023-02-27T00:41:36.707Z,60.32
2023-02-27T00:42:36.875Z,61.26
2023-02-27T00:43:37.056Z,60.74
2023-02-27T00:44:37.268Z,60.22
2023-02-27T00:45:37.425Z,59.91
2023-02-27T00:46:37.621Z,59.80
2023-02-27T00:47:37.739Z,59.49
2023-02-27T00:48:37.896Z,59.59
2023-02-27T00:49:38.064Z,59.49
2023-02-27T00:50:38.257Z,59.49
2023-02-27T00:51:38.434Z,59.91
2023-02-27T00:52:38.610Z,60.32
2023-02-27T00:53:38.792Z,60.11
2023-02-27T00:54:38.969Z,60.95
2023-02-27T00:55:39.152Z,60.63
2023-02-27T00:56:39.331Z,60.11
2023-02-27T00:57:39.611Z,59.80
2023-02-27T00:58:39.686Z,60.74
2023-02-27T00:59:39.856Z,60.32
2023-02-27T01:00:40.094Z,59.80
2023-02-27T01:01:40.224Z,59.70
2023-02-27T01:02:40.402Z,59.17
2023-02-27T01:03:40.554Z,59.17
2023-02-27T01:04:40.715Z,59.17
2023-02-27T01:05:40.917Z,59.49
2023-02-27T01:06:41.072Z,59.80
2023-02-27T01:07:41.245Z,59.80
2023-02-27T01:08:41.418Z,61.05
2023-02-27T01:09:41.599Z,60.85
2023-02-27T01:10:41.808Z,60.74
2023-02-27T01:11:41.962Z,60.74
2023-02-27T01:12:42.138Z,60.53
2023-02-27T01:13:42.314Z,60.63
2023-02-27T01:14:42.477Z,60.85
2023-02-27T01:15:42.686Z,60.53
2023-02-27T01:16:42.906Z,60.42
2023-02-27T01:17:42.992Z,60.11
2023-02-27T01:18:43.153Z,60.01
2023-02-27T01:19:43.338Z,61.05
2023-02-27T01:20:43.525Z,60.85
2023-02-27T01:21:43.697Z,60.32
2023-02-27T01:22:43.855Z,60.22
2023-02-27T01:23:44.052Z,60.22
2023-02-27T01:24:44.199Z,60.53
2023-02-27T01:25:44.374Z,60.42
2023-02-27T01:26:44.543Z,60.74
2023-02-27T01:27:44.724Z,60.53
2023-02-27T01:28:44.894Z,61.36
2023-02-27T01:29:45.077Z,60.74
2023-02-27T01:30:45.294Z,59.91
2023-02-27T01:31:45.552Z,60.01
2023-02-27T01:32:45.663Z,60.11
2023-02-27T01:33:45.744Z,59.91
2023-02-27T01:34:45.924Z,60.22
2023-02-27T01:35:46.124Z,60.95
2023-02-27T01:36:46.255Z,60.53
2023-02-27T01:37:46.429Z,60.66
2023-02-27T01:38:46.614Z,60.56
2023-02-27T01:39:46.784Z,60.97
2023-02-27T01:40:46.981Z,61.57
2023-02-27T01:41:47.148Z,60.56
2023-02-27T01:42:47.296Z,60.14
2023-02-27T01:43:47.461Z,60.25
2023-02-27T01:44:47.636Z,60.97
2023-02-27T01:45:47.908Z,61.50
2023-02-27T01:46:48.027Z,62.12
2023-02-27T01:47:48.170Z,61.29
2023-02-27T01:48:48.329Z,60.97
2023-02-27T01:49:48.514Z,61.08
2023-02-27T01:50:48.698Z,60.35
2023-02-27T01:51:48.837Z,60.97
2023-02-27T01:52:49.028Z,61.08
2023-02-27T01:53:49.230Z,61.08
2023-02-27T01:54:49.388Z,61.81
2023-02-27T01:55:49.587Z,61.29
2023-02-27T01:56:49.717Z,61.08
2023-02-27T01:57:49.899Z,60.56
2023-02-27T01:58:50.068Z,61.50
2023-02-27T01:59:50.251Z,61.08
2023-02-27T02:00:50.473Z,60.66
2023-02-27T02:01:50.597Z,60.46
2023-02-27T02:02:50.767Z,60.46
2023-02-27T02:03:50.937Z,60.35
2023-02-27T02:04:51.149Z,60.25
2023-02-27T02:05:51.313Z,60.46
2023-02-27T02:06:51.460Z,60.87
2023-02-27T02:07:51.630Z,61.60
2023-02-27T02:08:51.792Z,61.08
2023-02-27T02:09:51.984Z,61.18
2023-02-27T02:10:52.157Z,61.08
2023-02-27T02:11:52.341Z,60.77
2023-02-27T02:12:52.491Z,60.66
2023-02-27T02:13:52.665Z,62.12
2023-02-27T02:14:52.845Z,62.54
2023-02-27T02:15:53.034Z,60.77
2023-02-27T02:16:53.202Z,60.56
2023-02-27T02:17:53.368Z,61.91
2023-02-27T02:18:53.544Z,62.23
2023-02-27T02:19:53.732Z,61.40
2023-02-27T02:20:53.912Z,61.08
2023-02-27T02:21:54.083Z,61.50
2023-02-27T02:22:54.292Z,61.73
2023-02-27T02:23:54.428Z,61.52
2023-02-27T02:24:54.595Z,62.57
2023-02-27T02:25:54.782Z,62.46
2023-02-27T02:26:54.955Z,63.09
2023-02-27T02:27:55.125Z,61.63
2023-02-27T02:28:55.294Z,61.83
2023-02-27T02:29:55.473Z,62.46
2023-02-27T02:30:55.698Z,61.63
2023-02-27T02:31:55.995Z,63.20
2023-02-27T02:32:55.996Z,62.05
2023-02-27T02:33:56.173Z,61.73
2023-02-27T02:34:56.345Z,61.42
2023-02-27T02:35:56.520Z,62.57
2023-02-27T02:36:56.659Z,61.11
2023-02-27T02:37:56.820Z,61.63
2023-02-27T02:38:57.005Z,61.32
2023-02-27T02:39:57.183Z,61.94
2023-02-27T02:40:57.360Z,61.42
2023-02-27T02:41:57.527Z,61.83
2023-02-27T02:42:57.812Z,62.15
2023-02-27T02:43:57.867Z,61.52
2023-02-27T02:44:58.034Z,61.94
2023-02-27T02:45:58.242Z,62.70
2023-02-27T02:46:58.389Z,62.81
2023-02-27T02:47:58.567Z,62.07
2023-02-27T02:48:58.769Z,61.87
2023-02-27T02:49:58.921Z,61.97
2023-02-27T02:50:59.123Z,62.28
2023-02-27T02:51:59.280Z,61.87
2023-02-27T02:52:59.485Z,62.07
2023-02-27T02:53:59.649Z,62.39
2023-02-27T02:54:59.808Z,62.49
2023-02-27T02:56:00.015Z,62.49
2023-02-27T02:57:00.137Z,62.18
2023-02-27T02:58:00.325Z,62.39
2023-02-27T02:59:00.519Z,62.91
2023-02-27T03:00:00.736Z,62.49
2023-02-27T03:01:00.827Z,62.18
2023-02-27T03:02:00.978Z,61.76
2023-02-27T03:03:01.159Z,62.49
2023-02-27T03:04:01.418Z,62.18
2023-02-27T03:05:01.529Z,63.12
2023-02-27T03:06:01.678Z,62.70
2023-02-27T03:07:01.858Z,63.22
2023-02-27T03:08:02.029Z,63.43
2023-02-27T03:09:02.212Z,63.32
2023-02-27T03:10:02.380Z,63.32
2023-02-27T03:11:02.557Z,63.12
2023-02-27T03:12:02.752Z,62.49
2023-02-27T03:13:02.906Z,61.87
2023-02-27T03:14:03.086Z,62.18
2023-02-27T03:15:03.255Z,62.49
2023-02-27T03:16:03.479Z,63.22
2023-02-27T03:17:03.612Z,62.81
2023-02-27T03:18:03.788Z,62.39
2023-02-27T03:19:03.957Z,62.39
2023-02-27T03:20:04.138Z,63.43
2023-02-27T03:21:04.315Z,62.39
2023-02-27T03:22:04.499Z,62.49
2023-02-27T03:23:04.674Z,62.81
2023-02-27T03:24:04.851Z,62.81
2023-02-27T03:25:05.032Z,62.91
2023-02-27T03:26:05.224Z,62.70
2023-02-27T03:27:05.379Z,62.60
2023-02-27T03:28:05.549Z,62.39
2023-02-27T03:29:05.735Z,62.49
2023-02-27T03:30:05.930Z,63.75
2023-02-27T03:31:07.702Z,63.43
2023-02-27T03:32:06.280Z,63.32
2023-02-27T03:33:06.398Z,63.54
2023-02-27T03:34:06.577Z,62.70
2023-02-27T03:35:06.739Z,63.75
2023-02-27T03:36:06.967Z,63.95
2023-02-27T03:37:07.107Z,63.22
2023-02-27T03:38:07.275Z,63.43
2023-02-27T03:39:07.454Z,63.43
2023-02-27T03:40:07.629Z,63.64
2023-02-27T03:41:07.797Z,62.70
2023-02-27T03:42:07.974Z,63.22
2023-02-27T03:43:08.146Z,63.43
2023-02-27T03:44:08.320Z,63.22
2023-02-27T03:45:08.516Z,63.64
2023-02-27T03:46:08.665Z,63.64
2023-02-27T03:47:08.813Z,62.94
2023-02-27T03:48:08.994Z,63.12
2023-02-27T03:49:09.162Z,62.70
2023-02-27T03:50:09.361Z,62.62
2023-02-27T03:51:09.532Z,63.25
2023-02-27T03:52:09.702Z,63.15
2023-02-27T03:53:09.877Z,62.84
2023-02-27T03:54:10.057Z,63.01
2023-02-27T03:55:10.210Z,63.04
2023-02-27T03:56:10.400Z,63.15
2023-02-27T03:57:10.562Z,63.04
2023-02-27T03:58:10.734Z,62.94
2023-02-27T03:59:10.902Z,62.81
2023-02-27T04:00:11.073Z,62.52
2023-02-27T04:01:11.269Z,62.94
2023-02-27T04:02:11.484Z,62.60
2023-02-27T04:03:11.579Z,63.75
2023-02-27T04:04:11.740Z,63.75
2023-02-27T04:05:11.918Z,63.01
2023-02-27T04:06:12.100Z,63.12
2023-02-27T04:07:12.271Z,63.04
2023-02-27T04:08:12.447Z,63.12
2023-02-27T04:09:12.612Z,62.91
2023-02-27T04:10:12.780Z,62.81
2023-02-27T04:11:12.965Z,62.49
2023-02-27T04:12:13.148Z,62.73
2023-02-27T04:13:13.315Z,62.70
2023-02-27T04:14:13.486Z,63.12
2023-02-27T04:15:13.669Z,63.25
2023-02-27T04:16:13.861Z,64.06
2023-02-27T04:17:13.994Z,63.88
2023-02-27T04:18:14.158Z,64.09
2023-02-27T04:19:14.337Z,63.67
2023-02-27T04:20:14.501Z,63.67
2023-02-27T04:21:14.696Z,63.15
2023-02-27T04:22:14.827Z,63.35
2023-02-27T04:23:15.004Z,63.56
2023-02-27T04:24:15.177Z,63.04
2023-02-27T04:25:15.347Z,63.15
2023-02-27T04:26:15.534Z,62.94
2023-02-27T04:27:15.705Z,63.04
2023-02-27T04:28:15.873Z,62.84
2023-02-27T04:29:16.068Z,62.84
2023-02-27T04:30:16.199Z,63.15
2023-02-27T04:31:16.483Z,62.94
2023-02-27T04:32:16.639Z,63.46
2023-02-27T04:33:16.740Z,62.62
2023-02-27T04:34:16.901Z,62.62
2023-02-27T04:35:17.082Z,63.46
2023-02-27T04:36:17.271Z,63.25
2023-02-27T04:37:17.411Z,64.19
2023-02-27T04:38:17.580Z,63.67
2023-02-27T04:39:17.760Z,63.56
2023-02-27T04:40:17.957Z,63.98
2023-02-27T04:41:18.131Z,63.35
2023-02-27T04:42:18.323Z,63.56
2023-02-27T04:43:18.495Z,63.98
2023-02-27T04:44:18.661Z,63.67
2023-02-27T04:45:18.831Z,64.61
2023-02-27T04:46:19.004Z,63.98
2023-02-27T04:47:19.191Z,63.78
2023-02-27T04:48:19.377Z,63.67
2023-02-27T04:49:19.530Z,63.15
2023-02-27T04:50:19.726Z,63.25
2023-02-27T04:51:19.913Z,63.15
2023-02-27T04:52:20.071Z,63.67
2023-02-27T04:53:20.248Z,63.56
2023-02-27T04:54:20.420Z,64.09
2023-02-27T04:55:20.601Z,63.46
2023-02-27T04:56:20.788Z,63.46
2023-02-27T04:57:20.983Z,63.25
2023-02-27T04:58:21.112Z,63.04
2023-02-27T04:59:21.305Z,64.74
2023-02-27T05:00:21.463Z,64.50
2023-02-27T05:01:21.662Z,64.50
2023-02-27T05:02:21.837Z,64.29
2023-02-27T05:03:22.055Z,64.29
2023-02-27T05:04:22.131Z,64.64
2023-02-27T05:05:22.310Z,64.01
2023-02-27T05:06:22.511Z,64.64
2023-02-27T05:07:22.664Z,65.47
2023-02-27T05:08:22.829Z,64.01
2023-02-27T05:09:23.020Z,63.49
2023-02-27T05:10:23.186Z,63.49
2023-02-27T05:11:23.394Z,63.90
2023-02-27T05:12:23.525Z,64.22
2023-02-27T05:13:23.692Z,63.80
2023-02-27T05:14:23.870Z,64.22
2023-02-27T05:15:24.076Z,64.22
2023-02-27T05:16:24.260Z,63.70
2023-02-27T05:17:24.422Z,63.70
2023-02-27T05:18:24.575Z,63.39
2023-02-27T05:19:24.745Z,63.39
2023-02-27T05:20:24.944Z,63.70
2023-02-27T05:21:25.294Z,64.01
2023-02-27T05:22:25.260Z,64.32
2023-02-27T05:23:25.438Z,63.80
2023-02-27T05:24:25.610Z,63.70
2023-02-27T05:25:25.792Z,63.39
2023-02-27T05:26:25.996Z,63.59
2023-02-27T05:27:26.152Z,64.64
2023-02-27T05:28:26.310Z,65.26
2023-02-27T05:29:26.497Z,64.74
2023-02-27T05:30:26.666Z,63.80
2023-02-27T05:31:27.686Z,64.22
2023-02-27T05:32:27.085Z,63.90
2023-02-27T05:33:27.211Z,63.59
2023-02-27T05:34:27.380Z,64.32
2023-02-27T05:35:29.267Z,63.80
2023-02-27T05:36:27.803Z,64.12
2023-02-27T05:37:27.908Z,64.01
2023-02-27T05:38:28.104Z,63.80
2023-02-27T05:39:28.258Z,63.49
2023-02-27T05:40:28.437Z,64.01
2023-02-27T05:41:28.943Z,63.49
2023-02-27T05:42:28.753Z,63.59
2023-02-27T05:43:28.948Z,64.12
2023-02-27T05:44:29.145Z,64.32
2023-02-27T05:45:29.333Z,64.32
2023-02-27T05:46:29.514Z,64.53
2023-02-27T05:47:29.716Z,63.80
2023-02-27T05:48:29.853Z,64.74
2023-02-27T05:49:30.027Z,65.68
2023-02-27T05:50:30.171Z,64.12
2023-02-27T05:51:30.384Z,63.70
2023-02-27T05:52:30.516Z,63.80
2023-02-27T05:53:30.695Z,64.84
2023-02-27T05:54:30.854Z,64.53
2023-02-27T05:55:31.048Z,63.70
2023-02-27T05:56:31.234Z,64.43
2023-02-27T05:57:31.419Z,64.74
2023-02-27T05:58:31.593Z,65.37
2023-02-27T05:59:31.783Z,65.26
2023-02-27T06:00:31.993Z,65.37
2023-02-27T06:01:32.170Z,65.47
2023-02-27T06:02:32.371Z,65.37
2023-02-27T06:03:32.562Z,65.26
2023-02-27T06:04:32.692Z,65.06
2023-02-27T06:05:32.872Z,64.74
2023-02-27T06:06:33.066Z,65.68
2023-02-27T06:07:33.226Z,65.37
2023-02-27T06:08:33.384Z,65.37
2023-02-27T06:09:33.575Z,64.95
2023-02-27T06:10:33.742Z,66.00
2023-02-27T06:11:33.934Z,65.58
2023-02-27T06:12:34.104Z,65.47
2023-02-27T06:13:34.247Z,64.53
2023-02-27T06:14:34.424Z,64.74
2023-02-27T06:15:34.616Z,64.84
2023-02-27T06:16:34.838Z,64.53
2023-02-27T06:17:34.970Z,64.74
2023-02-27T06:18:35.143Z,64.43
2023-02-27T06:19:35.324Z,64.53
2023-02-27T06:20:35.500Z,64.22
2023-02-27T06:21:35.692Z,64.22
2023-02-27T06:22:35.834Z,64.22
2023-02-27T06:23:36.014Z,64.43
2023-02-27T06:24:36.188Z,64.29
2023-02-27T06:25:36.372Z,64.19
2023-02-27T06:26:36.564Z,64.19
2023-02-27T06:27:36.710Z,65.03
2023-02-27T06:28:36.884Z,64.61
2023-02-27T06:29:37.063Z,64.40
2023-02-27T06:30:37.251Z,64.29
2023-02-27T06:31:37.453Z,64.19
2023-02-27T06:32:37.619Z,64.40
2023-02-27T06:33:37.799Z,64.29
2023-02-27T06:34:38.002Z,64.61
2023-02-27T06:35:38.166Z,65.65
2023-02-27T06:36:38.348Z,65.34
2023-02-27T06:37:38.506Z,64.82
2023-02-27T06:38:38.696Z,65.10
2023-02-27T06:39:38.890Z,65.31
2023-02-27T06:40:39.059Z,65.10
2023-02-27T06:41:39.225Z,64.79
2023-02-27T06:42:39.394Z,65.20
2023-02-27T06:43:39.631Z,65.62
2023-02-27T06:44:39.744Z,65.62
2023-02-27T06:45:39.934Z,65.20
2023-02-27T06:46:40.268Z,64.65
2023-02-27T06:47:40.302Z,65.07
2023-02-27T06:48:40.497Z,64.65
2023-02-27T06:49:40.747Z,64.55
2023-02-27T06:50:40.862Z,64.76
2023-02-27T06:51:41.030Z,64.65
2023-02-27T06:52:41.204Z,64.55
2023-02-27T06:53:41.385Z,64.73
2023-02-27T06:54:41.561Z,64.62
2023-02-27T06:55:41.730Z,64.62
2023-02-27T06:56:41.939Z,64.94
2023-02-27T06:57:42.099Z,65.25
2023-02-27T06:58:42.303Z,65.64
2023-02-27T06:59:42.449Z,65.33
2023-02-27T07:00:42.637Z,65.33
2023-02-27T07:01:42.910Z,65.33
2023-02-27T07:02:42.983Z,65.33
2023-02-27T07:03:43.141Z,65.40
2023-02-27T07:04:43.430Z,65.71
2023-02-27T07:05:43.541Z,65.71
2023-02-27T07:07:35.795Z,65.19
2023-02-27T07:07:44.895Z,65.50
2023-02-27T07:09:01.428Z,65.61
2023-02-27T07:09:45.260Z,65.30
2023-02-27T07:10:44.436Z,65.61
2023-02-27T07:11:44.637Z,65.68
2023-02-27T07:12:44.791Z,65.47
2023-02-27T07:13:44.979Z,65.47
2023-02-27T07:14:45.169Z,64.92
2023-02-27T07:15:45.360Z,64.69
2023-02-27T07:16:45.528Z,64.24
2023-02-27T07:17:45.688Z,63.72
2023-02-27T07:18:45.878Z,63.28
2023-02-27T07:19:46.060Z,63.17
2023-02-27T07:20:46.250Z,63.17
2023-02-27T07:21:46.472Z,63.07
2023-02-27T07:22:46.639Z,62.96
2023-02-27T07:23:46.806Z,62.86
2023-02-27T07:24:46.989Z,63.07
2023-02-27T07:25:47.144Z,63.04
2023-02-27T07:26:47.366Z,62.93
2023-02-27T07:27:47.496Z,62.62
2023-02-27T07:28:47.693Z,62.52
2023-02-27T07:29:47.866Z,62.62
2023-02-27T07:30:48.102Z,62.52
2023-02-27T07:31:48.280Z,62.49
2023-02-27T07:32:48.396Z,62.49
2023-02-27T07:33:48.585Z,62.38
2023-02-27T07:34:48.764Z,62.38
2023-02-27T07:35:48.974Z,62.15
2023-02-27T07:36:49.111Z,61.63
2023-02-27T07:37:49.275Z,61.63
2023-02-27T07:38:49.439Z,61.50
2023-02-27T07:39:49.607Z,61.19
2023-02-27T07:40:49.790Z,61.57
2023-02-27T07:41:50.046Z,60.61
2023-02-27T07:42:52.705Z,60.82
2023-02-27T07:43:50.365Z,60.27
2023-02-27T07:44:50.532Z,60.04
2023-02-27T07:45:50.687Z,59.73
2023-02-27T07:46:50.915Z,59.80
2023-02-27T07:47:51.034Z,59.39
2023-02-27T07:48:51.230Z,58.98
2023-02-27T07:49:51.387Z,58.46
2023-02-27T07:50:51.580Z,58.67
2023-02-27T07:51:51.776Z,59.16
2023-02-27T07:52:51.936Z,58.95
2023-02-27T07:53:52.141Z,58.82
2023-02-27T07:54:52.298Z,58.09
2023-02-27T07:55:52.486Z,57.58
2023-02-27T07:56:52.667Z,57.48
2023-02-27T07:57:52.837Z,57.37
2023-02-27T07:58:52.985Z,58.20
2023-02-27T07:59:53.188Z,58.48
2023-02-27T08:00:53.346Z,56.39
2023-02-27T08:01:53.525Z,56.67
2023-02-27T08:02:53.722Z,56.26
2023-02-27T08:03:53.880Z,55.77
2023-02-27T08:04:54.126Z,55.98
2023-02-27T08:05:54.210Z,56.18
2023-02-27T08:06:54.415Z,56.29
2023-02-27T08:07:54.590Z,56.81
2023-02-27T08:08:54.750Z,56.49
2023-02-27T08:09:54.915Z,56.70
2023-02-27T08:10:55.087Z,56.90
2023-02-27T08:11:55.286Z,57.01
2023-02-27T08:12:55.406Z,57.01
2023-02-27T08:14:00.676Z,57.21
2023-02-27T08:14:56.754Z,57.42
2023-02-27T08:15:55.944Z,57.01
2023-02-27T08:16:56.131Z,56.90
2023-02-27T08:17:56.266Z,56.93
2023-02-27T08:18:56.464Z,57.45
2023-02-27T08:19:56.661Z,57.55
2023-02-27T08:20:56.818Z,57.45
2023-02-27T08:21:57.026Z,57.79
2023-02-27T08:22:57.187Z,57.68
2023-02-27T08:23:57.368Z,57.79
2023-02-27T08:24:57.523Z,58.44
2023-02-27T08:25:57.687Z,58.95
2023-02-27T08:26:57.886Z,58.84
2023-02-27T08:27:58.045Z,59.16
2023-02-27T08:28:58.234Z,59.26
2023-02-27T08:29:58.394Z,59.16
2023-02-27T08:30:58.588Z,58.84
2023-02-27T08:31:58.918Z,59.26
2023-02-27T08:32:58.939Z,59.16
2023-02-27T08:34:09.396Z,58.74
2023-02-27T08:35:01.271Z,58.74
2023-02-27T08:35:59.513Z,59.34
2023-02-27T08:36:59.677Z,59.64
2023-02-27T08:37:59.837Z,59.85
2023-02-27T08:39:00.018Z,59.44
2023-02-27T08:40:00.191Z,59.44
2023-02-27T08:41:00.338Z,59.34
2023-02-27T08:42:00.541Z,59.13
2023-02-27T08:43:00.706Z,59.44
2023-02-27T08:44:00.897Z,59.03
2023-02-27T08:45:01.080Z,59.03
2023-02-27T08:46:01.307Z,58.82
2023-02-27T08:47:01.441Z,59.13
2023-02-27T08:48:01.575Z,59.23
2023-02-27T08:49:01.771Z,59.00
2023-02-27T08:50:01.953Z,59.00
2023-02-27T08:51:02.118Z,59.31
2023-02-27T08:52:02.341Z,59.62
2023-02-27T08:53:02.492Z,59.49
2023-02-27T08:54:02.669Z,58.87
2023-02-27T08:55:02.840Z,58.45
2023-02-27T08:56:03.016Z,58.35
2023-02-27T08:57:03.238Z,58.64
2023-02-27T08:58:03.377Z,60.08
2023-02-27T08:59:03.581Z,59.02
2023-02-27T09:00:03.794Z,58.20
2023-02-27T09:01:03.909Z,58.37
2023-02-27T09:02:04.072Z,58.37
2023-02-27T09:03:04.314Z,57.03
2023-02-27T09:04:04.790Z,57.42
2023-02-27T09:05:04.597Z,56.90
2023-02-27T09:06:04.755Z,56.70
2023-02-27T09:07:04.945Z,57.18
2023-02-27T09:08:05.110Z,57.16
2023-02-27T09:09:05.279Z,57.98
2023-02-27T09:10:05.450Z,58.06
2023-02-27T09:11:05.594Z,56.93
2023-02-27T09:12:05.795Z,56.10
2023-02-27T09:13:05.958Z,57.01
2023-02-27T09:14:06.146Z,56.18
2023-02-27T09:15:06.329Z,55.66
2023-02-27T09:16:06.519Z,56.08
2023-02-27T09:17:06.700Z,55.33
2023-02-27T09:18:06.863Z,56.26
2023-02-27T09:19:07.073Z,55.95
2023-02-27T09:20:07.235Z,54.82
2023-02-27T09:21:07.439Z,53.56
2023-02-27T09:22:07.628Z,54.69
2023-02-27T09:23:07.792Z,54.17
2023-02-27T09:24:19.180Z,53.56
2023-02-27T09:25:09.109Z,53.23
2023-02-27T09:26:08.274Z,52.71
2023-02-27T09:27:08.481Z,53.10
2023-02-27T09:28:08.614Z,53.81
2023-02-27T09:29:08.813Z,53.17
2023-02-27T09:30:08.959Z,52.95
2023-02-27T09:31:09.144Z,51.82
2023-02-27T09:32:09.436Z,51.41
2023-02-27T09:33:09.496Z,51.41
2023-02-27T09:34:09.663Z,50.67
2023-02-27T09:35:09.850Z,51.59
2023-02-27T09:36:10.023Z,52.41
2023-02-27T09:37:10.194Z,50.97
2023-02-27T09:38:10.323Z,50.46
2023-02-27T09:39:10.510Z,50.56
2023-02-27T09:40:10.634Z,52.10
2023-02-27T09:41:10.829Z,52.31
2023-02-27T09:42:11.012Z,51.18
2023-02-27T09:43:11.248Z,52.59
2023-02-27T09:44:11.342Z,52.05
2023-02-27T09:45:11.513Z,50.52
2023-02-27T09:46:11.720Z,50.80
2023-02-27T09:47:11.865Z,48.93
2023-02-27T09:48:12.075Z,48.71
2023-02-27T09:49:12.213Z,48.71
2023-02-27T09:50:12.364Z,49.11
2023-02-27T09:51:12.587Z,48.30
2023-02-27T09:52:12.715Z,48.60
2023-02-27T09:53:12.915Z,48.19
2023-02-27T09:54:13.064Z,47.89
2023-02-27T09:55:13.240Z,47.68
2023-02-27T09:56:13.406Z,47.91
2023-02-27T09:57:13.603Z,48.22
2023-02-27T09:58:13.765Z,48.63
2023-02-27T09:59:13.906Z,48.32
2023-02-27T10:00:14.102Z,48.42
2023-02-27T10:01:14.290Z,48.11
2023-02-27T10:02:14.456Z,48.42
2023-02-27T10:03:14.639Z,48.83
2023-02-27T10:04:14.815Z,48.42
2023-02-27T10:05:14.969Z,47.81
2023-02-27T10:06:15.155Z,47.81
2023-02-27T10:07:15.305Z,47.91
2023-02-27T10:08:15.490Z,49.14
2023-02-27T10:09:15.632Z,48.42
2023-02-27T10:10:15.820Z,48.32
2023-02-27T10:11:15.981Z,48.42
2023-02-27T10:12:16.189Z,48.83
2023-02-27T10:13:16.345Z,48.52
2023-02-27T10:14:16.490Z,48.22
2023-02-27T10:15:16.709Z,48.11
2023-02-27T10:16:16.872Z,47.99
2023-02-27T10:17:17.033Z,48.40
2023-02-27T10:18:27.004Z,47.89
2023-02-27T10:19:18.365Z,47.45
2023-02-27T10:20:17.495Z,46.84
2023-02-27T10:21:17.674Z,46.66
2023-02-27T10:22:17.842Z,46.74
2023-02-27T10:23:18.055Z,46.44
2023-02-27T10:24:18.196Z,46.53
2023-02-27T10:25:30.864Z,47.05
2023-02-27T10:26:19.591Z,47.25
2023-02-27T10:27:18.762Z,46.84
2023-02-27T10:28:18.967Z,46.84
2023-02-27T10:29:19.147Z,46.97
2023-02-27T10:30:28.554Z,46.86
2023-02-27T10:31:21.166Z,46.76
2023-02-27T10:32:19.689Z,46.68
2023-02-27T10:33:19.816Z,46.99
2023-02-27T10:34:20.005Z,47.60
2023-02-27T10:35:20.166Z,47.09
2023-02-27T10:36:32.902Z,47.19
2023-02-27T10:37:21.545Z,46.66
2023-02-27T10:38:20.752Z,46.04
2023-02-27T10:39:20.930Z,45.53
2023-02-27T10:40:21.046Z,46.15
2023-02-27T10:41:21.205Z,46.25
2023-02-27T10:42:21.395Z,47.07
2023-02-27T10:43:21.569Z,45.84
2023-02-27T10:44:21.744Z,46.56
2023-02-27T10:45:21.916Z,46.04
2023-02-27T10:46:22.145Z,46.86
2023-02-27T10:47:22.231Z,46.33
2023-02-27T10:48:22.421Z,46.12
2023-02-27T10:49:22.578Z,46.53
2023-02-27T10:50:22.730Z,45.72
2023-02-27T10:51:22.931Z,45.51
2023-02-27T10:52:23.123Z,44.79
2023-02-27T10:53:23.327Z,45.20
2023-02-27T10:54:23.572Z,46.12
2023-02-27T10:55:23.649Z,45.51
2023-02-27T10:56:23.859Z,46.03
2023-02-27T10:57:24.028Z,45.61
2023-02-27T10:58:24.214Z,44.59
2023-02-27T10:59:24.381Z,45.72
2023-02-27T11:00:24.577Z,46.00
2023-02-27T11:01:24.940Z,46.31
2023-02-27T11:02:24.924Z,46.29
2023-02-27T11:03:25.129Z,46.39
2023-02-27T11:04:25.302Z,45.65
2023-02-27T11:05:25.459Z,44.92
2023-02-27T11:06:25.662Z,43.90
2023-02-27T11:07:25.777Z,43.38
2023-02-27T11:08:25.954Z,43.18
2023-02-27T11:09:26.124Z,43.59
2023-02-27T11:10:26.286Z,43.20
2023-02-27T11:11:26.713Z,43.20
2023-02-27T11:12:26.628Z,43.30
2023-02-27T11:13:26.827Z,42.90
2023-02-27T11:14:26.998Z,42.91
2023-02-27T11:15:27.169Z,43.43
2023-02-27T11:16:27.329Z,43.63
2023-02-27T11:17:27.567Z,43.14
2023-02-27T11:18:27.719Z,43.76
2023-02-27T11:19:27.876Z,43.98
2023-02-27T11:20:28.065Z,44.10
2023-02-27T11:21:28.629Z,44.41
2023-02-27T11:22:28.444Z,45.65
2023-02-27T11:23:28.654Z,44.94
2023-02-27T11:24:28.813Z,45.17
2023-02-27T11:25:29.004Z,46.01
2023-02-27T11:26:29.150Z,46.21
2023-02-27T11:27:29.451Z,46.31
2023-02-27T11:28:29.544Z,46.31
2023-02-27T11:29:29.711Z,46.34
2023-02-27T11:30:29.902Z,46.13
2023-02-27T11:31:30.462Z,46.54
2023-02-27T11:32:30.210Z,46.64
2023-02-27T11:33:30.382Z,46.54
2023-02-27T11:34:30.563Z,46.54
2023-02-27T11:35:30.785Z,45.83
2023-02-27T11:36:30.891Z,45.62
2023-02-27T11:37:31.063Z,45.42
2023-02-27T11:38:31.244Z,44.31
2023-02-27T11:39:31.415Z,45.03
2023-02-27T11:40:31.634Z,45.33
2023-02-27T11:41:31.753Z,44.92
2023-02-27T11:42:31.938Z,45.13
2023-02-27T11:43:32.139Z,45.03
2023-02-27T11:44:49.907Z,44.71
2023-02-27T11:46:04.618Z,44.94
2023-02-27T11:46:47.649Z,46.17
2023-02-27T11:47:33.899Z,46.61
2023-02-27T11:48:33.069Z,46.09
2023-02-27T11:49:33.239Z,45.68
2023-02-27T11:50:33.409Z,44.45
2023-02-27T11:51:33.572Z,44.12
2023-02-27T11:52:33.750Z,42.27
2023-02-27T11:53:33.980Z,42.27
2023-02-27T11:54:34.091Z,42.48
2023-02-27T11:55:34.260Z,42.89
2023-02-27T11:56:36.171Z,42.99
2023-02-27T11:57:34.624Z,43.10
2023-02-27T11:58:34.807Z,43.71
2023-02-27T11:59:34.939Z,43.91
2023-02-27T12:00:35.131Z,43.90
2023-02-27T12:01:35.291Z,45.64
2023-02-27T12:02:37.607Z,45.64
2023-02-27T12:03:35.703Z,43.49
2023-02-27T12:04:35.806Z,42.77
2023-02-27T12:05:35.980Z,44.62
2023-02-27T12:06:36.140Z,44.62
2023-02-27T12:07:36.299Z,44.31
2023-02-27T12:08:36.514Z,43.38
2023-02-27T12:09:36.699Z,41.13
2023-02-27T12:10:36.829Z,42.97
2023-02-27T12:11:37.000Z,44.00
2023-02-27T12:12:37.187Z,42.56
2023-02-27T12:13:37.374Z,41.74
2023-02-27T12:14:37.552Z,42.05
2023-02-27T12:15:37.708Z,40.80
2023-02-27T12:16:37.930Z,39.98
2023-02-27T12:17:38.068Z,41.72
2023-02-27T12:18:38.239Z,40.70
2023-02-27T12:19:38.415Z,41.11
2023-02-27T12:20:38.570Z,38.75
2023-02-27T12:21:38.741Z,39.06
2023-02-27T12:22:38.934Z,41.21
2023-02-27T12:23:39.098Z,39.57
2023-02-27T12:24:39.270Z,40.08
2023-02-27T12:25:39.452Z,40.90
2023-02-27T12:26:39.659Z,39.57
2023-02-27T12:27:39.830Z,37.73
2023-02-27T12:28:40.022Z,35.57
2023-02-27T12:29:40.185Z,36.29
2023-02-27T12:30:40.348Z,36.60
2023-02-27T12:31:40.535Z,36.60
2023-02-27T12:32:40.787Z,36.61
2023-02-27T12:33:40.896Z,35.49
2023-02-27T12:34:41.032Z,35.81
2023-02-27T12:35:41.235Z,35.60
2023-02-27T12:36:41.344Z,36.12
2023-02-27T12:37:41.526Z,35.31
2023-02-27T12:38:41.703Z,36.55
2023-02-27T12:39:41.863Z,36.75
2023-02-27T12:40:42.058Z,36.03
2023-02-27T12:41:42.287Z,35.30
2023-02-27T12:42:42.414Z,35.91
2023-02-27T12:43:42.615Z,37.04
2023-02-27T12:44:42.770Z,36.73
2023-02-27T12:45:43.010Z,34.68
2023-02-27T12:46:43.133Z,34.78
2023-02-27T12:47:43.325Z,35.19
2023-02-27T12:48:43.521Z,35.71
2023-02-27T12:49:43.688Z,36.53
2023-02-27T12:50:43.860Z,36.63
2023-02-27T12:51:44.030Z,36.02
2023-02-27T12:52:44.196Z,36.32
2023-02-27T12:53:44.415Z,36.63
2023-02-27T12:54:46.522Z,36.85